Time;durP1;ratioP1;P1;durP2;ratioP2;P2;SDS_P1;SDS_P2;PMS_P1;PMS_P2;Temp;Humidity;BMP_temperature;BMP_pressure;BME280_temperature;BME280_humidity;BME280_pressure;Samples;Min_cycle;Max_cycle;Signal;HPM_P1;HPM_P2
2021/08/05 00:02:20;;;;;;;3.70;2.60;;;;;;;17.99;68.23;96867.63;4962122;28;20034;-78
2021/08/05 00:04:46;;;;;;;4.75;2.95;;;;;;;18.03;67.99;96862.56;4954351;28;20141;-78
2021/08/05 00:07:12;;;;;;;4.20;3.03;;;;;;;18.00;68.42;96869.19;4935908;28;20077;-78
2021/08/05 00:09:39;;;;;;;3.40;3.10;;;;;;;18.05;68.18;96860.41;4935617;28;20027;-78
2021/08/05 00:12:06;;;;;;;5.82;3.17;;;;;;;18.04;68.36;96864.88;4953733;28;20041;-78
2021/08/05 00:14:31;;;;;;;3.88;3.47;;;;;;;18.10;68.64;96868.19;4943994;28;20429;-78
2021/08/05 00:16:57;;;;;;;3.90;3.15;;;;;;;18.13;68.29;96868.38;4954821;28;20022;-78
2021/08/05 00:19:23;;;;;;;3.92;3.05;;;;;;;18.15;68.94;96866.19;4939148;28;20034;-78
2021/08/05 00:21:48;;;;;;;3.30;2.92;;;;;;;18.22;68.68;96865.00;4954502;28;20066;-78
2021/08/05 00:24:14;;;;;;;3.00;2.70;;;;;;;18.22;68.19;96868.41;4954754;28;20035;-78
2021/08/05 00:26:39;;;;;;;3.53;3.03;;;;;;;18.26;68.33;96860.69;4972276;28;20110;-78
2021/08/05 00:29:04;;;;;;;3.78;2.95;;;;;;;18.28;68.49;96861.16;4941339;28;20042;-78
2021/08/05 00:31:30;;;;;;;4.30;2.83;;;;;;;18.25;68.41;96859.91;4956006;28;20034;-78
2021/08/05 00:33:55;;;;;;;4.10;2.83;;;;;;;18.25;68.23;96854.63;4951080;29;20035;-78
2021/08/05 00:36:20;;;;;;;5.45;3.35;;;;;;;18.29;68.00;96857.44;4933305;29;20568;-78
2021/08/05 00:38:46;;;;;;;5.45;3.25;;;;;;;18.25;68.08;96854.63;4954556;28;20195;-78
2021/08/05 00:41:12;;;;;;;3.53;3.22;;;;;;;18.24;67.87;96852.31;4938719;28;20046;-78
2021/08/05 00:43:38;;;;;;;5.32;3.13;;;;;;;18.25;68.06;96848.56;4954740;28;20050;-78
2021/08/05 00:46:03;;;;;;;4.63;3.05;;;;;;;18.23;68.26;96848.09;4953929;28;20027;-78
2021/08/05 00:48:29;;;;;;;3.58;2.88;;;;;;;18.24;68.28;96847.03;4953812;28;20383;-78
2021/08/05 00:50:55;;;;;;;4.25;2.90;;;;;;;18.25;68.27;96838.81;4937996;28;20441;-78
2021/08/05 00:53:21;;;;;;;3.13;2.80;;;;;;;18.27;68.04;96831.41;4954351;28;20093;-78
2021/08/05 00:55:46;;;;;;;3.10;2.80;;;;;;;18.31;68.26;96831.56;4952481;28;20031;-78
2021/08/05 00:58:11;;;;;;;3.30;2.78;;;;;;;18.31;68.09;96832.34;4955029;28;20383;-78
2021/08/05 01:00:38;;;;;;;3.47;2.85;;;;;;;18.28;67.95;96832.16;4944594;28;20066;-78
2021/08/05 01:03:20;;;;;;;3.13;2.70;;;;;;;18.06;68.55;96831.13;4937744;28;20065;-78
2021/08/05 01:05:51;;;;;;;4.22;3.08;;;;;;;18.12;67.92;96824.63;4953424;28;20030;-78
2021/08/05 01:08:23;;;;;;;3.22;2.75;;;;;;;18.06;68.00;96828.50;4947458;28;20034;-78
2021/08/05 01:10:55;;;;;;;4.57;2.97;;;;;;;18.04;67.88;96825.38;4950059;29;20035;-78
2021/08/05 01:13:33;;;;;;;4.35;2.53;;;;;;;17.90;67.96;96822.03;4954434;28;20042;-78
2021/08/05 01:16:00;;;;;;;4.70;3.00;;;;;;;17.95;67.97;96822.69;4936383;28;20110;-78
2021/08/05 01:18:29;;;;;;;5.65;3.20;;;;;;;17.88;67.72;96827.59;4954305;28;20036;-78
2021/08/05 01:20:56;;;;;;;3.35;3.03;;;;;;;17.92;67.64;96819.88;4951875;28;20078;-78
2021/08/05 01:23:21;;;;;;;5.18;3.10;;;;;;;17.91;68.11;96820.97;4920309;28;20082;-78
2021/08/05 01:25:49;;;;;;;4.55;2.90;;;;;;;17.77;68.01;96816.50;4971235;28;20418;-78
2021/08/05 01:28:15;;;;;;;4.60;2.97;;;;;;;17.75;67.97;96808.13;4935585;28;20447;-78
2021/08/05 01:30:42;;;;;;;3.70;3.22;;;;;;;17.70;68.33;96807.44;4939787;28;20133;-78
2021/08/05 01:33:08;;;;;;;4.90;3.33;;;;;;;17.72;68.03;96821.13;4964230;28;20066;-78
2021/08/05 01:35:34;;;;;;;3.67;3.10;;;;;;;17.67;68.03;96822.00;4951033;29;20031;-78
2021/08/05 01:38:00;;;;;;;3.80;2.90;;;;;;;17.58;68.16;96814.03;4948334;29;20039;-78
2021/08/05 01:40:26;;;;;;;2.90;2.60;;;;;;;17.57;68.03;96819.59;4918952;29;20027;-78
2021/08/05 01:42:53;;;;;;;3.40;2.65;;;;;;;17.50;68.11;96804.22;4953480;28;20034;-78
2021/08/05 01:45:19;;;;;;;4.50;2.90;;;;;;;17.51;68.33;96808.41;4971488;28;20041;-78
2021/08/05 01:47:45;;;;;;;4.10;3.38;;;;;;;17.50;68.39;96806.84;4937938;28;20486;-78
2021/08/05 01:50:12;;;;;;;3.75;3.20;;;;;;;17.46;68.56;96805.91;4937095;28;20121;-78
2021/08/05 01:52:37;;;;;;;4.78;3.38;;;;;;;17.47;68.89;96802.19;4963514;28;20045;-78
2021/08/05 01:55:04;;;;;;;5.25;3.80;;;;;;;17.48;68.94;96800.31;4950111;29;20477;-78
2021/08/05 01:57:31;;;;;;;4.43;3.50;;;;;;;17.54;68.76;96804.41;4974338;28;20042;-78
2021/08/05 01:59:59;;;;;;;3.70;3.10;;;;;;;17.42;68.66;96797.78;4955414;28;20359;-78
2021/08/05 02:02:24;;;;;;;3.72;3.20;;;;;;;17.52;68.82;96802.06;4931849;28;20073;-78
2021/08/05 02:05:06;;;;;;;4.05;2.90;;;;;;;17.39;68.89;96806.31;4957401;28;20126;-78
2021/08/05 02:07:37;;;;;;;4.50;3.13;;;;;;;17.39;69.17;96805.50;4974774;28;20074;-78
2021/08/05 02:10:10;;;;;;;3.47;2.88;;;;;;;17.44;68.95;96804.63;4954604;29;20066;-78
2021/08/05 02:12:48;;;;;;;6.95;4.32;;;;;;;17.38;69.21;96794.22;4935891;28;20458;-78
2021/08/05 02:15:15;;;;;;;3.13;2.83;;;;;;;17.55;68.81;96793.56;4940378;28;20130;-78
2021/08/05 02:17:42;;;;;;;4.63;3.30;;;;;;;17.57;69.20;96795.91;4957183;28;20031;-78
2021/08/05 02:20:10;;;;;;;4.13;3.72;;;;;;;17.58;69.13;96789.56;4957016;28;20109;-78
2021/08/05 02:22:38;;;;;;;4.28;3.65;;;;;;;17.53;68.96;96785.19;4940319;28;20039;-78
2021/08/05 02:25:05;;;;;;;4.68;3.60;;;;;;;17.61;68.95;96786.31;4969910;28;20034;-78
2021/08/05 02:27:30;;;;;;;3.95;3.53;;;;;;;17.62;69.16;96790.53;4954902;28;20023;-78
2021/08/05 02:29:56;;;;;;;4.97;3.33;;;;;;;17.63;69.02;96792.06;4951615;28;20034;-78
2021/08/05 02:32:22;;;;;;;6.18;4.25;;;;;;;17.64;69.01;96792.88;4955239;28;20038;-78
2021/08/05 02:34:48;;;;;;;4.57;3.65;;;;;;;17.57;68.78;96777.47;4934594;28;20079;-78
2021/08/05 02:37:17;;;;;;;4.50;3.90;;;;;;;17.56;69.04;96776.72;4955434;28;20027;-78
2021/08/05 02:39:42;;;;;;;5.45;4.15;;;;;;;17.59;69.04;96784.00;4937717;28;20097;-78
2021/08/05 02:42:08;;;;;;;4.00;3.50;;;;;;;17.56;68.99;96775.91;4937910;29;20023;-78
2021/08/05 02:44:34;;;;;;;5.18;3.30;;;;;;;17.58;68.78;96779.81;4974559;28;20076;-78
2021/08/05 02:47:00;;;;;;;4.47;3.50;;;;;;;17.54;68.67;96783.34;4972737;28;20109;-78
2021/08/05 02:49:25;;;;;;;5.07;3.53;;;;;;;17.53;69.08;96782.56;4956181;28;20038;-78
2021/08/05 02:51:51;;;;;;;4.47;3.50;;;;;;;17.51;69.10;96771.56;4956340;28;20046;-78
2021/08/05 02:54:17;;;;;;;3.92;3.38;;;;;;;17.46;68.34;96768.25;4956832;28;20027;-78
2021/08/05 02:56:42;;;;;;;4.70;3.90;;;;;;;17.47;68.69;96782.97;4972835;28;20067;-78
2021/08/05 02:59:08;;;;;;;4.70;3.88;;;;;;;17.42;68.62;96771.47;4956395;28;20034;-78
2021/08/05 03:01:34;;;;;;;3.90;3.45;;;;;;;17.42;68.62;96776.75;4940132;28;20485;-78
2021/08/05 03:03:59;;;;;;;4.90;3.58;;;;;;;17.42;68.78;96768.84;4973535;28;20042;-78
2021/08/05 03:06:28;;;;;;;4.72;3.30;;;;;;;17.27;68.85;96766.56;4921485;29;20046;-78
2021/08/05 03:08:54;;;;;;;4.15;3.55;;;;;;;17.33;68.94;96770.66;4965634;28;20169;-78
2021/08/05 03:11:20;;;;;;;5.10;3.53;;;;;;;17.30;69.22;96767.84;4934230;29;20031;-78
2021/08/05 03:13:46;;;;;;;3.70;3.38;;;;;;;17.28;69.13;96773.38;4937358;28;20442;-78
2021/08/05 03:16:11;;;;;;;4.40;3.35;;;;;;;17.22;69.13;96772.72;4973765;28;20038;-78
2021/08/05 03:18:37;;;;;;;5.78;3.35;;;;;;;17.17;69.43;96769.41;4955122;28;20193;-78
2021/08/05 03:21:02;;;;;;;5.85;3.72;;;;;;;17.20;69.51;96768.81;4955766;28;20153;-78
2021/08/05 03:23:28;;;;;;;3.75;3.30;;;;;;;17.20;69.29;96772.25;4956185;28;20031;-78
2021/08/05 03:25:53;;;;;;;4.22;3.83;;;;;;;17.20;69.47;96766.19;4954465;28;20039;-78
2021/08/05 03:28:18;;;;;;;5.22;3.42;;;;;;;17.25;69.15;96771.34;4954219;28;20031;-78
2021/08/05 03:30:44;;;;;;;4.32;3.47;;;;;;;17.28;69.58;96765.50;4939234;28;20402;-78
2021/08/05 03:33:09;;;;;;;4.95;3.67;;;;;;;17.28;69.53;96770.75;4945550;28;20037;-78
2021/08/05 03:35:35;;;;;;;4.07;3.30;;;;;;;17.27;69.57;96761.28;4924433;28;20035;-78
2021/08/05 03:38:00;;;;;;;4.65;3.65;;;;;;;17.27;69.29;96763.94;4936699;29;20369;-78
2021/08/05 03:40:26;;;;;;;5.13;4.20;;;;;;;17.25;69.53;96763.47;4939383;28;20078;-78
2021/08/05 03:42:51;;;;;;;9.02;3.70;;;;;;;17.28;69.62;96767.34;4955362;28;20403;-78
2021/08/05 03:45:17;;;;;;;4.40;3.58;;;;;;;17.25;69.32;96767.94;4955578;28;20035;-78
2021/08/05 03:47:42;;;;;;;5.05;3.95;;;;;;;17.22;69.56;96764.03;4955170;28;20031;-78
2021/08/05 03:50:08;;;;;;;5.70;3.65;;;;;;;17.24;69.53;96764.53;4950334;29;20046;-78
2021/08/05 03:52:33;;;;;;;4.45;3.47;;;;;;;17.26;69.31;96767.66;4952531;28;20116;-78
2021/08/05 03:54:58;;;;;;;3.70;3.28;;;;;;;17.24;69.36;96761.91;4951627;29;20055;-78
2021/08/05 03:57:24;;;;;;;5.18;3.75;;;;;;;17.25;69.33;96770.56;4933795;29;20253;-78
2021/08/05 03:59:49;;;;;;;5.10;3.75;;;;;;;17.18;69.34;96763.09;4936551;28;20220;-78
2021/08/05 04:02:15;;;;;;;4.95;3.63;;;;;;;17.14;69.21;96760.28;4944667;28;20034;-78
2021/08/05 04:04:41;;;;;;;4.10;3.60;;;;;;;17.13;69.13;96769.22;4954925;28;20043;-78
2021/08/05 04:07:07;;;;;;;5.20;3.80;;;;;;;17.09;69.20;96757.00;4954345;28;20162;-78
2021/08/05 04:09:32;;;;;;;4.70;3.42;;;;;;;17.06;69.22;96758.34;4954710;28;20114;-78
2021/08/05 04:11:58;;;;;;;5.45;3.63;;;;;;;17.07;69.18;96759.13;4954847;28;20034;-78
2021/08/05 04:14:23;;;;;;;6.32;4.82;;;;;;;17.05;69.53;96754.19;4950505;28;20142;-78
2021/08/05 04:16:48;;;;;;;4.72;3.55;;;;;;;17.04;69.50;96750.75;4972336;28;20086;-78
2021/08/05 04:19:14;;;;;;;5.25;3.92;;;;;;;17.04;69.50;96749.97;4953427;28;20034;-78
2021/08/05 04:21:39;;;;;;;4.00;3.38;;;;;;;17.03;69.54;96743.16;4952750;28;20030;-78
2021/08/05 04:24:05;;;;;;;4.90;3.55;;;;;;;17.04;69.64;96752.59;4954532;28;20030;-78
2021/08/05 04:26:30;;;;;;;4.50;3.75;;;;;;;17.05;69.60;96751.53;4942162;28;20024;-78
2021/08/05 04:28:56;;;;;;;4.70;3.78;;;;;;;17.06;69.52;96752.31;4954741;28;20038;-78
2021/08/05 04:31:21;;;;;;;4.93;4.15;;;;;;;17.00;69.89;96749.03;4954374;28;20053;-78
2021/08/05 04:33:47;;;;;;;4.65;3.92;;;;;;;17.06;69.30;96747.06;4951746;29;20035;-78
2021/08/05 04:36:12;;;;;;;4.07;3.53;;;;;;;17.13;69.23;96748.19;4934713;29;20031;-78
2021/08/05 04:38:38;;;;;;;5.70;3.67;;;;;;;17.20;69.25;96748.56;4938350;28;20023;-78
2021/08/05 04:41:03;;;;;;;5.07;4.20;;;;;;;17.19;69.39;96748.88;4954175;28;20355;-78
2021/08/05 04:43:28;;;;;;;5.10;4.47;;;;;;;17.20;69.64;96748.56;4935202;29;20031;-78
2021/08/05 04:45:54;;;;;;;5.65;3.92;;;;;;;17.25;69.34;96744.28;4933396;29;20386;-78
2021/08/05 04:48:19;;;;;;;5.93;4.63;;;;;;;17.30;69.65;96750.19;4952002;28;20736;-78
2021/08/05 04:50:45;;;;;;;5.05;3.60;;;;;;;17.37;69.36;96753.19;4971175;28;20031;-78
2021/08/05 04:53:12;;;;;;;6.25;3.92;;;;;;;17.47;69.35;96754.81;4938299;28;20035;-78
2021/08/05 04:55:37;;;;;;;6.22;4.32;;;;;;;17.54;69.10;96757.00;4937794;28;20545;-78
2021/08/05 04:58:05;;;;;;;5.97;3.90;;;;;;;17.55;68.66;96755.94;4954431;28;20054;-78
2021/08/05 05:00:34;;;;;;;5.55;4.30;;;;;;;17.55;68.79;96758.59;4952520;28;20557;-78
2021/08/05 05:02:59;;;;;;;4.93;4.10;;;;;;;17.60;69.07;96758.47;4958310;28;20045;-78
2021/08/05 05:05:29;;;;;;;6.03;4.13;;;;;;;17.58;68.70;96764.03;4952219;28;20358;-78
2021/08/05 05:07:54;;;;;;;5.72;4.25;;;;;;;17.58;68.74;96753.50;4969676;28;20035;-78
2021/08/05 05:10:21;;;;;;;5.55;3.90;;;;;;;17.53;68.82;96755.44;4952572;28;20057;-78
2021/08/05 05:12:47;;;;;;;6.25;4.05;;;;;;;17.60;68.76;96761.09;4920262;28;20047;-78
2021/08/05 05:15:13;;;;;;;5.40;4.40;;;;;;;17.62;68.82;96752.91;4936256;28;20034;-78
2021/08/05 05:17:40;;;;;;;4.85;3.80;;;;;;;17.66;68.74;96757.25;4919345;28;20038;-78
2021/08/05 05:20:07;;;;;;;6.00;3.95;;;;;;;17.68;68.57;96746.41;4935262;28;20023;-78
2021/08/05 05:22:33;;;;;;;5.32;3.95;;;;;;;17.75;68.85;96749.41;4940358;28;20057;-78
2021/08/05 05:24:58;;;;;;;5.30;4.20;;;;;;;17.76;68.81;96748.34;4970431;28;20070;-78
2021/08/05 05:27:23;;;;;;;7.32;4.53;;;;;;;17.82;68.82;96741.06;4956337;28;20082;-79
2021/08/05 05:29:56;;;;;;;5.45;4.15;;;;;;;17.76;68.88;96743.06;4953958;28;20035;-78
2021/08/05 05:32:26;;;;;;;4.97;4.40;;;;;;;17.84;69.02;96744.19;4963802;28;20081;-78
2021/08/05 05:34:52;;;;;;;5.80;3.97;;;;;;;17.98;68.67;96744.91;4954433;28;20046;-78
2021/08/05 05:37:18;;;;;;;8.20;5.00;;;;;;;18.15;68.75;96738.97;4965980;28;20030;-78
2021/08/05 05:39:44;;;;;;;7.65;4.47;;;;;;;18.30;68.26;96740.38;4938821;28;20050;-78
2021/08/05 05:42:10;;;;;;;7.00;5.05;;;;;;;18.40;68.33;96734.84;4965320;28;20520;-78
2021/08/05 05:44:35;;;;;;;6.57;4.88;;;;;;;18.44;68.29;96735.00;4952300;28;20043;-78
2021/08/05 05:47:00;;;;;;;6.93;4.60;;;;;;;18.59;67.83;96742.50;4942089;28;20093;-78
2021/08/05 05:49:26;;;;;;;7.72;4.50;;;;;;;18.64;67.57;96744.97;4948266;29;20089;-78
2021/08/05 05:51:51;;;;;;;6.22;3.97;;;;;;;18.77;66.81;96750.47;4922528;29;20043;-78
2021/08/05 05:54:16;;;;;;;6.47;4.75;;;;;;;18.76;67.00;96748.91;4949986;28;20467;-78
2021/08/05 05:56:42;;;;;;;4.60;3.70;;;;;;;18.82;66.63;96756.38;4935564;29;20069;-79
2021/08/05 05:59:07;;;;;;;5.30;3.97;;;;;;;18.85;66.57;96755.78;4942191;29;20534;-78
2021/08/05 06:01:35;;;;;;;4.93;4.28;;;;;;;18.81;66.61;96760.06;4949223;28;20544;-78
2021/08/05 06:04:01;;;;;;;5.45;3.97;;;;;;;18.87;66.85;96750.97;4954536;28;20121;-78
2021/08/05 06:06:26;;;;;;;6.22;3.95;;;;;;;18.97;66.48;96762.28;4970990;28;20035;-78
2021/08/05 06:08:52;;;;;;;7.20;4.50;;;;;;;18.90;66.80;96758.28;4951675;29;20071;-78
2021/08/05 06:11:17;;;;;;;5.50;4.20;;;;;;;18.97;67.28;96762.28;4969271;28;20417;-78
2021/08/05 06:13:43;;;;;;;6.10;4.68;;;;;;;19.10;66.66;96748.19;4939436;28;20039;-78
2021/08/05 06:16:08;;;;;;;6.00;4.45;;;;;;;19.32;65.91;96738.56;4922184;28;20498;-78
2021/08/05 06:18:34;;;;;;;7.22;4.18;;;;;;;19.53;65.60;96742.13;4937705;28;20027;-78
2021/08/05 06:20:59;;;;;;;6.05;4.25;;;;;;;19.76;64.79;96739.31;4953614;28;20039;-78
2021/08/05 06:23:25;;;;;;;4.90;4.03;;;;;;;19.97;64.09;96742.81;4950343;28;20143;-78
2021/08/05 06:25:50;;;;;;;5.22;4.47;;;;;;;20.11;64.58;96747.91;4953631;28;20070;-77
2021/08/05 06:28:16;;;;;;;5.35;4.07;;;;;;;20.12;64.44;96736.25;4949838;28;20027;-78
2021/08/05 06:30:41;;;;;;;5.93;4.40;;;;;;;20.25;64.17;96742.41;4972155;28;20046;-78
2021/08/05 06:33:07;;;;;;;5.30;3.53;;;;;;;20.40;63.14;96743.75;4971532;28;20107;-78
2021/08/05 06:35:32;;;;;;;4.07;3.65;;;;;;;20.63;62.40;96738.22;4936315;28;20738;-78
2021/08/05 06:38:00;;;;;;;5.28;3.65;;;;;;;20.64;62.90;96748.47;4945759;28;20023;-78
2021/08/05 06:40:25;;;;;;;3.95;2.97;;;;;;;20.82;61.94;96743.88;4919776;29;20035;-78
2021/08/05 06:42:51;;;;;;;3.45;2.80;;;;;;;20.84;62.05;96743.56;4949588;28;20440;-78
2021/08/05 06:45:16;;;;;;;4.63;3.22;;;;;;;20.90;61.93;96745.66;4954758;29;20427;-78
2021/08/05 06:47:46;;;;;;;5.13;3.50;;;;;;;20.92;62.12;96740.06;4957614;28;20034;-78
2021/08/05 06:50:12;;;;;;;4.25;2.97;;;;;;;21.02;61.86;96734.38;4945722;29;20616;-78
2021/08/05 06:52:37;;;;;;;3.92;3.08;;;;;;;21.03;61.11;96735.94;4945594;28;20035;-78
2021/08/05 06:55:04;;;;;;;3.78;2.70;;;;;;;20.99;61.73;96739.53;4931822;29;20086;-78
2021/08/05 06:57:29;;;;;;;4.15;3.13;;;;;;;20.88;61.99;96732.00;4958604;28;20022;-79
2021/08/05 06:59:55;;;;;;;2.50;2.30;;;;;;;20.95;61.26;96739.41;4953833;29;20037;-79
2021/08/05 07:02:20;;;;;;;3.50;2.85;;;;;;;20.98;62.20;96745.94;4964174;28;20046;-79
2021/08/05 07:04:45;;;;;;;3.78;2.60;;;;;;;21.04;61.13;96753.38;4954672;29;20039;-77
2021/08/05 07:07:11;;;;;;;3.55;2.90;;;;;;;21.22;61.09;96755.88;4970731;28;20722;-78
2021/08/05 07:09:36;;;;;;;2.95;2.65;;;;;;;21.50;59.55;96753.50;4954506;28;20031;-78
2021/08/05 07:12:01;;;;;;;2.60;2.35;;;;;;;21.58;58.74;96752.63;4955403;28;20065;-78
2021/08/05 07:14:27;;;;;;;2.50;2.30;;;;;;;21.66;58.10;96745.69;4948023;28;20041;-78
2021/08/05 07:16:52;;;;;;;2.83;2.58;;;;;;;21.79;58.36;96759.78;4956956;28;20467;-78
2021/08/05 07:19:18;;;;;;;2.38;2.15;;;;;;;22.01;57.39;96751.41;4974499;28;20089;-78
2021/08/05 07:21:43;;;;;;;3.95;2.35;;;;;;;22.06;57.00;96753.09;4957574;28;20031;-78
2021/08/05 07:24:10;;;;;;;2.50;2.30;;;;;;;22.06;57.37;96747.78;4939676;28;20126;-78
2021/08/05 07:26:35;;;;;;;2.63;2.42;;;;;;;22.14;56.37;96746.91;4936375;28;20495;-78
2021/08/05 07:29:01;;;;;;;2.90;2.30;;;;;;;22.19;56.42;96738.75;4941093;28;20042;-78
2021/08/05 07:31:26;;;;;;;2.38;2.15;;;;;;;22.20;56.73;96740.28;4974417;28;20038;-78
2021/08/05 07:33:54;;;;;;;2.50;2.30;;;;;;;22.18;56.74;96739.84;4938523;28;20083;-78
2021/08/05 07:36:21;;;;;;;2.20;2.00;;;;;;;22.08;56.31;96737.63;4938900;28;20133;-78
2021/08/05 07:38:46;;;;;;;2.05;1.90;;;;;;;22.18;55.58;96737.19;4941198;28;20022;-78
2021/08/05 07:41:11;;;;;;;2.10;1.98;;;;;;;22.17;55.68;96730.31;4937440;29;20406;-78
2021/08/05 07:43:37;;;;;;;3.38;2.20;;;;;;;22.26;55.53;96736.31;4953580;29;20108;-78
2021/08/05 07:46:06;;;;;;;2.70;1.92;;;;;;;22.28;55.66;96727.28;4956381;28;20035;-78
2021/08/05 07:48:31;;;;;;;2.88;2.05;;;;;;;22.48;55.08;96729.03;4956322;28;20382;-78
2021/08/05 07:50:56;;;;;;;2.83;2.53;;;;;;;22.61;55.14;96730.56;4955968;28;20030;-78
2021/08/05 07:53:22;;;;;;;2.40;2.15;;;;;;;22.60;55.46;96725.59;4935665;28;20054;-78
2021/08/05 07:55:47;;;;;;;2.35;2.15;;;;;;;22.92;55.64;96731.09;4926987;28;20034;-78
2021/08/05 07:58:12;;;;;;;3.63;2.42;;;;;;;22.98;55.53;96730.53;4953470;29;20036;-78
2021/08/05 08:00:38;;;;;;;4.03;3.58;;;;;;;23.39;53.82;96725.22;4935374;29;20043;-78
2021/08/05 08:03:04;;;;;;;2.97;2.67;;;;;;;23.63;52.58;96731.50;4925751;28;20467;-79
2021/08/05 08:05:29;;;;;;;3.03;2.50;;;;;;;23.66;54.17;96726.28;4956230;28;20034;-78
2021/08/05 08:07:56;;;;;;;2.75;2.42;;;;;;;23.89;53.39;96729.19;4950344;28;20065;-78
2021/08/05 08:10:22;;;;;;;2.35;2.15;;;;;;;24.25;51.50;96729.28;4972313;28;20045;-78
2021/08/05 08:12:47;;;;;;;2.45;2.22;;;;;;;24.28;52.02;96723.25;4940898;28;20042;-78
2021/08/05 08:15:14;;;;;;;3.10;2.50;;;;;;;24.36;50.77;96724.97;4956883;28;20035;-78
2021/08/05 08:17:39;;;;;;;2.00;1.90;;;;;;;24.21;51.93;96723.09;4957380;28;20026;-78
2021/08/05 08:20:06;;;;;;;2.33;2.22;;;;;;;24.28;50.78;96721.38;4955423;28;20093;-77
2021/08/05 08:22:32;;;;;;;2.15;2.05;;;;;;;24.36;49.80;96721.53;4973054;28;20043;-77
2021/08/05 08:24:58;;;;;;;3.13;2.67;;;;;;;24.31;51.47;96722.56;4956115;28;20041;-78
2021/08/05 08:27:23;;;;;;;2.45;2.25;;;;;;;24.40;50.09;96715.19;4939478;28;20093;-78
2021/08/05 08:29:48;;;;;;;3.35;2.00;;;;;;;24.71;50.85;96708.28;4972822;28;20035;-78
2021/08/05 08:32:14;;;;;;;2.17;1.98;;;;;;;25.20;48.85;96709.63;4937856;28;20030;-77
2021/08/05 08:34:39;;;;;;;2.33;2.00;;;;;;;25.69;47.08;96713.59;4952935;28;20110;-78
2021/08/05 08:37:04;;;;;;;1.73;1.63;;;;;;;25.92;46.42;96709.03;4952763;28;20040;-78
2021/08/05 08:39:30;;;;;;;3.22;1.80;;;;;;;26.14;45.03;96717.41;4920495;29;20023;-78
2021/08/05 08:41:55;;;;;;;1.80;1.70;;;;;;;26.13;44.35;96711.31;4952142;29;20031;-78
2021/08/05 08:44:22;;;;;;;1.98;1.60;;;;;;;26.32;44.59;96709.66;4939037;28;20121;-78
2021/08/05 08:46:48;;;;;;;2.50;2.30;;;;;;;26.41;45.02;96712.88;4955816;28;20035;-78
2021/08/05 08:49:13;;;;;;;1.45;1.35;;;;;;;26.36;44.08;96707.84;4955244;28;20049;-78
2021/08/05 08:51:40;;;;;;;1.77;1.67;;;;;;;25.75;46.82;96706.84;4950427;29;20031;-78
2021/08/05 08:54:07;;;;;;;1.98;1.80;;;;;;;26.07;44.99;96702.06;4922518;29;20032;-78
2021/08/05 08:56:34;;;;;;;3.03;2.10;;;;;;;26.22;44.99;96712.94;4953722;28;20533;-78
2021/08/05 08:59:00;;;;;;;1.98;1.77;;;;;;;26.04;46.25;96708.09;4955325;28;20397;-78
2021/08/05 09:01:26;;;;;;;1.92;1.80;;;;;;;25.83;46.87;96708.50;4953467;28;20035;-78
2021/08/05 09:03:51;;;;;;;1.70;1.50;;;;;;;25.93;46.59;96697.25;4939155;28;20461;-78
2021/08/05 09:06:17;;;;;;;1.63;1.52;;;;;;;25.85;46.73;96705.47;4937906;28;20045;-77
2021/08/05 09:08:42;;;;;;;1.73;1.63;;;;;;;25.66;47.08;96698.31;4951515;29;20039;-78
2021/08/05 09:11:08;;;;;;;4.05;2.47;;;;;;;25.63;48.08;96701.69;4944978;28;20038;-78
2021/08/05 09:13:34;;;;;;;1.50;1.40;;;;;;;25.89;46.15;96698.28;4970697;28;20389;-78
2021/08/05 09:15:59;;;;;;;1.60;1.50;;;;;;;26.04;46.03;96694.75;4938969;28;20033;-78
2021/08/05 09:18:30;;;;;;;1.85;1.70;;;;;;;26.12;46.07;96687.66;4954482;28;20102;-78
2021/08/05 09:21:09;;;;;;;1.20;1.10;;;;;;;26.24;46.20;96690.13;4972757;28;20111;-78
2021/08/05 09:23:55;;;;;;;1.40;1.10;;;;;;;26.39;43.95;96685.75;4955060;28;20397;-78
2021/08/05 09:26:25;;;;;;;1.33;1.23;;;;;;;26.73;44.21;96688.50;4935839;29;20383;-78
2021/08/05 09:29:15;;;;;;;1.10;1.10;;;;;;;26.66;42.84;96689.19;4935927;28;20525;-78
2021/08/05 09:31:44;;;;;;;1.73;1.63;;;;;;;26.84;42.51;96683.31;4942887;28;20034;-77
2021/08/05 09:34:13;;;;;;;1.50;1.40;;;;;;;27.27;42.12;96676.56;4939049;28;20033;-77
2021/08/05 09:36:40;;;;;;;1.40;1.30;;;;;;;27.46;42.87;96678.28;4938873;28;20517;-78
2021/08/05 09:39:14;;;;;;;1.52;1.42;;;;;;;26.91;42.33;96678.06;4954543;28;20023;-77
2021/08/05 09:42:03;;;;;;;;;;;;;;;26.47;44.45;96678.59;4955121;28;20066;-77
2021/08/05 09:44:37;;;;;;;1.80;1.50;;;;;;;26.40;43.23;96676.59;4946231;28;20525;-77
2021/08/05 09:47:14;;;;;;;1.50;1.40;;;;;;;26.50;44.00;96677.91;4954639;28;20019;-77
2021/08/05 09:49:49;;;;;;;1.75;1.60;;;;;;;26.66;42.25;96675.84;4970185;28;20944;-78
2021/08/05 09:52:16;;;;;;;1.10;1.00;;;;;;;27.12;41.53;96664.16;4934982;29;20031;-77
2021/08/05 09:54:43;;;;;;;1.23;1.13;;;;;;;27.02;43.54;96660.22;4968221;28;20493;-77
2021/08/05 09:57:11;;;;;;;1.40;1.08;;;;;;;27.19;41.80;96669.59;4972053;28;20031;-78
2021/08/05 09:59:58;;;;;;;1.30;1.20;;;;;;;26.88;42.51;96668.84;4954484;28;20480;-77
2021/08/05 10:02:25;;;;;;;1.85;1.63;;;;;;;26.78;41.35;96666.81;4977147;28;20082;-77
2021/08/05 10:04:52;;;;;;;1.13;1.02;;;;;;;26.39;44.17;96668.97;4970457;28;20047;-78
2021/08/05 10:07:17;;;;;;;1.70;1.60;;;;;;;26.19;44.47;96668.31;4938613;28;20055;-78
2021/08/05 10:09:44;;;;;;;1.50;1.40;;;;;;;25.57;46.14;96669.22;4918954;29;20062;-77
2021/08/05 10:12:21;;;;;;;2.10;1.88;;;;;;;25.12;47.55;96673.31;4915590;28;20533;-77
2021/08/05 10:14:48;;;;;;;1.90;1.60;;;;;;;24.91;49.38;96674.44;4953990;28;20027;-78
2021/08/05 10:17:15;;;;;;;1.40;1.30;;;;;;;24.99;49.41;96668.13;4971661;28;20050;-77
2021/08/05 10:19:43;;;;;;;1.60;1.45;;;;;;;25.23;48.19;96667.06;4941792;28;20065;-77
2021/08/05 10:22:10;;;;;;;1.50;1.40;;;;;;;25.84;46.07;96666.59;4951663;28;20089;-77
2021/08/05 10:24:39;;;;;;;1.58;1.48;;;;;;;25.98;44.64;96656.19;4938823;29;20035;-77
2021/08/05 10:27:06;;;;;;;1.77;1.50;;;;;;;26.19;42.39;96658.41;4946323;28;20121;-77
2021/08/05 10:29:33;;;;;;;1.33;1.23;;;;;;;25.83;44.82;96663.16;4938476;29;20223;-78
2021/08/05 10:32:00;;;;;;;1.30;1.20;;;;;;;25.69;46.03;96655.69;4957520;28;20035;-77
2021/08/05 10:34:25;;;;;;;1.25;1.15;;;;;;;25.72;46.23;96648.88;4957620;28;20037;-77
2021/08/05 10:36:52;;;;;;;1.80;1.50;;;;;;;25.65;47.30;96638.84;4973905;28;20041;-77
2021/08/05 10:39:18;;;;;;;1.25;1.15;;;;;;;25.49;45.63;96625.66;4938175;29;20590;-77
2021/08/05 10:41:43;;;;;;;1.48;1.38;;;;;;;26.17;45.29;96644.66;4925508;28;20093;-77
2021/08/05 10:44:08;;;;;;;1.60;1.50;;;;;;;26.61;46.16;96627.28;4975032;28;20073;-77
2021/08/05 10:46:34;;;;;;;1.50;1.40;;;;;;;26.69;43.33;96629.72;4938670;29;20462;-77
2021/08/05 10:49:04;;;;;;;1.58;1.48;;;;;;;26.57;43.57;96627.25;4971518;28;20031;-78
2021/08/05 10:51:40;;;;;;;1.90;1.70;;;;;;;26.09;46.67;96635.75;4936293;29;20552;-78
2021/08/05 10:54:06;;;;;;;1.70;1.60;;;;;;;26.26;46.41;96629.13;4955721;28;20027;-77
2021/08/05 10:56:31;;;;;;;1.95;1.85;;;;;;;26.46;45.63;96634.34;4963597;28;20414;-77
2021/08/05 10:59:00;;;;;;;1.73;1.63;;;;;;;27.05;45.30;96622.09;4953965;28;20031;-78
2021/08/05 11:01:43;;;;;;;1.88;1.55;;;;;;;27.17;41.97;96621.06;4955019;28;20391;-78
2021/08/05 11:04:09;;;;;;;1.40;1.30;;;;;;;27.62;41.93;96613.88;4966903;28;20096;-78
2021/08/05 11:06:34;;;;;;;1.50;1.40;;;;;;;27.51;42.38;96612.25;4936327;29;20031;-78
2021/08/05 11:09:26;;;;;;;1.55;1.45;;;;;;;27.28;44.51;96621.19;4955224;28;20034;-77
2021/08/05 11:11:51;;;;;;;1.60;1.50;;;;;;;27.06;43.16;96620.97;4955900;28;20039;-77
2021/08/05 11:14:16;;;;;;;1.35;1.25;;;;;;;26.78;44.57;96626.00;4936136;28;20676;-77
2021/08/05 11:16:55;;;;;;;1.77;1.67;;;;;;;26.21;45.60;96623.34;4969689;28;20054;-78
2021/08/05 11:19:25;;;;;;;1.80;1.70;;;;;;;26.07;46.93;96629.25;4969126;28;20043;-78
2021/08/05 11:21:51;;;;;;;2.33;1.70;;;;;;;25.48;46.80;96628.69;4951368;28;20392;-77
2021/08/05 11:24:42;;;;;;;2.03;1.80;;;;;;;24.83;51.53;96638.91;4949809;28;20035;-78
2021/08/05 11:27:18;;;;;;;1.95;1.85;;;;;;;24.48;52.97;96645.00;4957982;28;20121;-78
2021/08/05 11:29:44;;;;;;;2.40;2.05;;;;;;;24.01;55.68;96627.28;4939619;28;20121;-78
2021/08/05 11:32:22;;;;;;;2.05;1.95;;;;;;;23.64;56.83;96638.16;4937000;28;20161;-78
2021/08/05 11:35:01;;;;;;;1.70;1.60;;;;;;;23.56;55.88;96634.56;4938053;28;20494;-78